createdAt,value
2022-09-03T00:00:47.152Z,57.92
2022-09-03T00:01:47.194Z,58.43
2022-09-03T00:02:47.148Z,57.52
2022-09-03T00:03:47.115Z,57.42
2022-09-03T00:04:47.105Z,57.92
2022-09-03T00:05:47.104Z,57.92
2022-09-03T00:06:47.081Z,58.33
2022-09-03T00:07:47.093Z,58.12
2022-09-03T00:08:47.094Z,58.12
2022-09-03T00:09:47.045Z,58.02
2022-09-03T00:10:47.067Z,58.02
2022-09-03T00:11:47.022Z,58.23
2022-09-03T00:12:47.037Z,58.25
2022-09-03T00:13:47.014Z,58.65
2022-09-03T00:14:46.987Z,58.56
2022-09-03T00:15:47.047Z,58.25
2022-09-03T00:16:46.973Z,58.36
2022-09-03T00:17:46.950Z,58.36
2022-09-03T00:18:46.943Z,58.25
2022-09-03T00:19:46.952Z,58.36
2022-09-03T00:20:46.920Z,58.15
2022-09-03T00:21:46.915Z,58.25
2022-09-03T00:22:46.893Z,58.45
2022-09-03T00:23:46.899Z,58.25
2022-09-03T00:24:46.895Z,58.56
2022-09-03T00:25:46.864Z,58.36
2022-09-03T00:26:46.856Z,58.15
2022-09-03T00:27:46.847Z,58.45
2022-09-03T00:28:46.850Z,58.25
2022-09-03T00:29:46.845Z,58.05
2022-09-03T00:30:46.822Z,58.36
2022-09-03T00:31:46.806Z,58.05
2022-09-03T00:32:46.792Z,58.56
2022-09-03T00:33:46.770Z,58.45
2022-09-03T00:34:46.765Z,58.05
2022-09-03T00:35:46.749Z,58.76
2022-09-03T00:36:46.742Z,58.15
2022-09-03T00:37:46.717Z,58.25
2022-09-03T00:38:46.717Z,58.56
2022-09-03T00:39:46.723Z,58.25
2022-09-03T00:40:46.684Z,58.45
2022-09-03T00:41:46.675Z,58.65
2022-09-03T00:42:46.668Z,58.05
2022-09-03T00:43:46.648Z,58.45
2022-09-03T00:44:46.808Z,58.15
2022-09-03T00:45:46.625Z,58.76
2022-09-03T00:46:46.670Z,58.96
2022-09-03T00:47:46.627Z,58.15
2022-09-03T00:48:46.593Z,58.45
2022-09-03T00:49:46.588Z,58.15
2022-09-03T00:50:46.593Z,58.65
2022-09-03T00:51:46.555Z,58.36
2022-09-03T00:52:46.543Z,58.36
2022-09-03T00:53:46.541Z,58.65
2022-09-03T00:54:46.518Z,58.45
2022-09-03T00:55:46.549Z,58.38
2022-09-03T00:56:46.493Z,58.28
2022-09-03T00:57:47.719Z,58.05
2022-09-03T00:58:46.470Z,58.18
2022-09-03T00:59:46.465Z,58.28
2022-09-03T01:00:46.448Z,58.99
2022-09-03T01:01:46.518Z,58.07
2022-09-03T01:02:46.527Z,58.76
2022-09-03T01:03:46.452Z,58.69
2022-09-03T01:04:46.400Z,58.99
2022-09-03T01:05:46.387Z,59.09
2022-09-03T01:06:46.382Z,59.39
2022-09-03T01:07:46.390Z,59.09
2022-09-03T01:08:49.175Z,58.69
2022-09-03T01:09:46.343Z,59.09
2022-09-03T01:10:46.328Z,58.38
2022-09-03T01:11:46.329Z,57.98
2022-09-03T01:12:46.344Z,59.19
2022-09-03T01:13:46.322Z,59.09
2022-09-03T01:14:46.280Z,59.09
2022-09-03T01:15:46.381Z,59.09
2022-09-03T01:16:46.257Z,59.49
2022-09-03T01:17:46.246Z,58.99
2022-09-03T01:18:46.257Z,59.59
2022-09-03T01:19:46.221Z,59.19
2022-09-03T01:20:46.230Z,58.89
2022-09-03T01:21:46.198Z,58.38
2022-09-03T01:22:46.207Z,58.89
2022-09-03T01:23:46.223Z,59.09
2022-09-03T01:24:46.157Z,58.99
2022-09-03T01:25:46.165Z,59.19
2022-09-03T01:26:46.160Z,59.19
2022-09-03T01:27:46.128Z,58.99
2022-09-03T01:28:46.179Z,59.09
2022-09-03T01:29:46.105Z,59.29
2022-09-03T01:30:46.140Z,58.89
2022-09-03T01:31:46.091Z,59.09
2022-09-03T01:32:46.066Z,58.78
2022-09-03T01:33:46.093Z,59.09
2022-09-03T01:34:46.043Z,58.89
2022-09-03T01:35:46.052Z,58.58
2022-09-03T01:36:46.015Z,59.09
2022-09-03T01:37:46.018Z,58.89
2022-09-03T01:38:45.997Z,59.09
2022-09-03T01:39:46.051Z,59.49
2022-09-03T01:40:45.969Z,59.49
2022-09-03T01:41:45.961Z,59.59
2022-09-03T01:42:45.945Z,59.70
2022-09-03T01:43:45.937Z,59.80
2022-09-03T01:44:45.944Z,60.10
2022-09-03T01:45:51.327Z,58.89
2022-09-03T01:46:45.994Z,59.09
2022-09-03T01:47:45.885Z,58.99
2022-09-03T01:48:45.875Z,59.49
2022-09-03T01:49:45.866Z,59.39
2022-09-03T01:50:45.912Z,58.99
2022-09-03T01:51:45.847Z,59.09
2022-09-03T01:52:45.826Z,59.19
2022-09-03T01:53:45.816Z,59.09
2022-09-03T01:54:45.803Z,59.72
2022-09-03T01:55:45.819Z,59.39
2022-09-03T01:56:45.795Z,59.32
2022-09-03T01:57:45.827Z,59.72
2022-09-03T01:58:45.757Z,59.70
2022-09-03T01:59:45.760Z,60.00
2022-09-03T02:00:45.753Z,59.80
2022-09-03T02:01:45.769Z,59.90
2022-09-03T02:02:45.790Z,59.70
2022-09-03T02:03:45.699Z,59.72
2022-09-03T02:04:45.680Z,60.33
2022-09-03T02:05:45.699Z,60.84
2022-09-03T02:06:45.656Z,60.41
2022-09-03T02:07:45.659Z,60.13
2022-09-03T02:08:45.677Z,60.13
2022-09-03T02:09:45.624Z,60.33
2022-09-03T02:10:45.607Z,60.03
2022-09-03T02:11:45.596Z,60.13
2022-09-03T02:12:45.608Z,60.63
2022-09-03T02:13:45.576Z,60.23
2022-09-03T02:14:45.567Z,59.72
2022-09-03T02:15:45.601Z,60.43
2022-09-03T02:16:45.533Z,60.23
2022-09-03T02:17:45.561Z,59.83
2022-09-03T02:18:45.520Z,60.84
2022-09-03T02:19:45.504Z,60.23
2022-09-03T02:20:45.486Z,60.53
2022-09-03T02:21:45.477Z,60.84
2022-09-03T02:22:45.460Z,60.33
2022-09-03T02:23:45.492Z,60.03
2022-09-03T02:24:45.436Z,60.33
2022-09-03T02:25:45.456Z,60.13
2022-09-03T02:26:45.410Z,60.53
2022-09-03T02:27:45.418Z,60.74
2022-09-03T02:28:45.429Z,60.23
2022-09-03T02:29:45.376Z,60.74
2022-09-03T02:30:45.457Z,60.63
2022-09-03T02:31:45.350Z,60.33
2022-09-03T02:32:45.339Z,60.53
2022-09-03T02:33:45.332Z,60.13
2022-09-03T02:34:45.393Z,61.04
2022-09-03T02:35:45.308Z,60.23
2022-09-03T02:36:45.295Z,60.74
2022-09-03T02:37:45.302Z,60.74
2022-09-03T02:38:45.264Z,60.77
2022-09-03T02:39:45.275Z,60.77
2022-09-03T02:40:45.264Z,60.86
2022-09-03T02:41:45.228Z,60.86
2022-09-03T02:42:45.267Z,61.07
2022-09-03T02:43:45.202Z,60.86
2022-09-03T02:44:45.190Z,60.77
2022-09-03T02:45:45.219Z,61.17
2022-09-03T02:46:45.166Z,60.86
2022-09-03T02:47:45.185Z,60.77
2022-09-03T02:48:45.145Z,61.78
2022-09-03T02:49:45.130Z,60.77
2022-09-03T02:50:45.128Z,61.37
2022-09-03T02:51:45.120Z,60.46
2022-09-03T02:52:45.118Z,61.27
2022-09-03T02:53:45.090Z,60.86
2022-09-03T02:54:45.069Z,61.78
2022-09-03T02:55:45.058Z,60.97
2022-09-03T02:56:45.043Z,61.68
2022-09-03T02:57:45.061Z,61.37
2022-09-03T02:58:45.016Z,60.77
2022-09-03T02:59:45.008Z,60.77
2022-09-03T03:00:45.006Z,60.77
2022-09-03T03:01:46.510Z,60.57
2022-09-03T03:02:45.016Z,61.07
2022-09-03T03:03:44.960Z,61.98
2022-09-03T03:04:44.943Z,61.88
2022-09-03T03:05:44.979Z,61.27
2022-09-03T03:06:45.712Z,60.77
2022-09-03T03:07:44.906Z,61.47
2022-09-03T03:08:44.934Z,61.58
2022-09-03T03:09:44.885Z,61.17
2022-09-03T03:10:44.879Z,60.77
2022-09-03T03:11:44.858Z,61.68
2022-09-03T03:12:44.848Z,60.86
2022-09-03T03:13:44.886Z,61.37
2022-09-03T03:14:44.885Z,61.17
2022-09-03T03:15:44.810Z,61.17
2022-09-03T03:16:44.848Z,61.68
2022-09-03T03:17:44.804Z,61.27
2022-09-03T03:18:44.766Z,61.68
2022-09-03T03:19:44.764Z,61.07
2022-09-03T03:20:44.806Z,60.79
2022-09-03T03:21:44.732Z,62.01
2022-09-03T03:22:44.717Z,61.60
2022-09-03T03:23:44.711Z,61.37
2022-09-03T03:24:44.693Z,61.91
2022-09-03T03:25:44.696Z,62.01
2022-09-03T03:26:44.672Z,62.11
2022-09-03T03:27:44.657Z,62.52
2022-09-03T03:28:44.645Z,61.88
2022-09-03T03:29:44.633Z,62.11
2022-09-03T03:30:44.687Z,62.08
2022-09-03T03:31:44.614Z,62.21
2022-09-03T03:32:44.600Z,62.21
2022-09-03T03:33:44.586Z,62.72
2022-09-03T03:34:44.586Z,62.31
2022-09-03T03:35:44.591Z,62.11
2022-09-03T03:36:44.571Z,61.91
2022-09-03T03:37:44.535Z,62.31
2022-09-03T03:38:44.524Z,61.91
2022-09-03T03:39:44.585Z,62.31
2022-09-03T03:40:44.495Z,62.11
2022-09-03T03:41:44.517Z,62.41
2022-09-03T03:42:44.470Z,62.01
2022-09-03T03:43:44.484Z,62.31
2022-09-03T03:44:44.447Z,62.21
2022-09-03T03:45:44.473Z,62.11
2022-09-03T03:46:44.421Z,61.91
2022-09-03T03:47:44.440Z,62.62
2022-09-03T03:48:44.396Z,63.02
2022-09-03T03:49:44.413Z,62.54
2022-09-03T03:50:44.372Z,62.75
2022-09-03T03:51:44.358Z,63.06
2022-09-03T03:52:44.393Z,62.62
2022-09-03T03:53:44.342Z,62.75
2022-09-03T03:54:44.322Z,63.02
2022-09-03T03:55:44.354Z,62.95
2022-09-03T03:56:44.296Z,63.02
2022-09-03T03:57:44.311Z,63.02
2022-09-03T03:58:44.382Z,63.02
2022-09-03T03:59:44.264Z,63.02
2022-09-03T04:00:44.243Z,62.72
2022-09-03T04:01:44.302Z,63.02
2022-09-03T04:02:44.307Z,62.62
2022-09-03T04:03:44.224Z,63.06
2022-09-03T04:04:44.196Z,62.65
2022-09-03T04:05:48.497Z,63.12
2022-09-03T04:06:44.168Z,62.65
2022-09-03T04:07:44.157Z,63.02
2022-09-03T04:08:44.171Z,62.62
2022-09-03T04:09:44.162Z,63.66
2022-09-03T04:10:44.120Z,62.62
2022-09-03T04:11:44.107Z,62.95
2022-09-03T04:12:44.093Z,62.75
2022-09-03T04:13:44.082Z,62.65
2022-09-03T04:14:44.097Z,62.72
2022-09-03T04:15:44.082Z,62.72
2022-09-03T04:16:44.113Z,63.35
2022-09-03T04:17:44.034Z,63.46
2022-09-03T04:18:44.019Z,63.46
2022-09-03T04:19:44.031Z,63.56
2022-09-03T04:20:43.996Z,63.53
2022-09-03T04:21:43.979Z,63.35
2022-09-03T04:22:43.965Z,63.63
2022-09-03T04:23:43.956Z,63.63
2022-09-03T04:24:43.971Z,63.76
2022-09-03T04:25:43.931Z,63.76
2022-09-03T04:26:43.916Z,63.56
2022-09-03T04:27:43.906Z,64.17
2022-09-03T04:28:43.892Z,63.96
2022-09-03T04:29:43.891Z,63.96
2022-09-03T04:30:43.893Z,63.96
2022-09-03T04:31:43.851Z,63.76
2022-09-03T04:32:43.837Z,63.46
2022-09-03T04:33:43.906Z,64.17
2022-09-03T04:34:43.815Z,64.07
2022-09-03T04:35:43.820Z,63.96
2022-09-03T04:36:43.799Z,64.17
2022-09-03T04:37:43.781Z,63.96
2022-09-03T04:38:43.763Z,64.07
2022-09-03T04:39:43.867Z,64.17
2022-09-03T04:40:43.742Z,63.86
2022-09-03T04:41:43.741Z,64.00
2022-09-03T04:42:43.722Z,64.37
2022-09-03T04:43:43.705Z,63.56
2022-09-03T04:44:43.722Z,63.76
2022-09-03T04:45:43.713Z,64.00
2022-09-03T04:46:43.660Z,64.40
2022-09-03T04:47:43.649Z,63.76
2022-09-03T04:48:43.663Z,64.50
2022-09-03T04:49:43.639Z,64.00
2022-09-03T04:50:43.613Z,64.40
2022-09-03T04:51:43.598Z,64.47
2022-09-03T04:52:43.588Z,64.40
2022-09-03T04:53:43.649Z,64.50
2022-09-03T04:54:43.562Z,64.17
2022-09-03T04:55:43.547Z,64.27
2022-09-03T04:56:43.540Z,64.40
2022-09-03T04:57:43.523Z,64.20
2022-09-03T04:58:43.522Z,64.50
2022-09-03T04:59:43.520Z,64.40
2022-09-03T05:00:43.547Z,64.58
2022-09-03T05:01:43.468Z,64.10
2022-09-03T05:02:43.461Z,64.27
2022-09-03T05:03:43.444Z,64.40
2022-09-03T05:04:43.459Z,64.20
2022-09-03T05:05:43.424Z,64.20
2022-09-03T05:06:43.418Z,64.50
2022-09-03T05:07:43.395Z,64.70
2022-09-03T05:08:43.382Z,65.01
2022-09-03T05:09:43.420Z,64.50
2022-09-03T05:10:43.361Z,64.47
2022-09-03T05:11:43.346Z,64.10
2022-09-03T05:12:43.330Z,64.30
2022-09-03T05:13:43.349Z,64.20
2022-09-03T05:14:43.314Z,64.67
2022-09-03T05:15:43.293Z,64.98
2022-09-03T05:16:43.336Z,64.50
2022-09-03T05:17:43.289Z,65.42
2022-09-03T05:18:43.255Z,64.91
2022-09-03T05:19:43.287Z,64.81
2022-09-03T05:20:43.229Z,64.78
2022-09-03T05:21:43.213Z,64.88
2022-09-03T05:22:43.253Z,65.21
2022-09-03T05:23:43.188Z,65.18
2022-09-03T05:24:43.204Z,64.98
2022-09-03T05:25:43.165Z,64.78
2022-09-03T05:26:43.154Z,64.88
2022-09-03T05:27:43.137Z,65.52
2022-09-03T05:28:43.139Z,64.70
2022-09-03T05:29:43.135Z,65.48
2022-09-03T05:30:43.104Z,64.67
2022-09-03T05:31:43.111Z,64.67
2022-09-03T05:32:43.073Z,64.78
2022-09-03T05:33:43.079Z,64.98
2022-09-03T05:34:43.073Z,65.48
2022-09-03T05:35:43.039Z,64.88
2022-09-03T05:36:43.031Z,64.98
2022-09-03T05:37:43.014Z,65.48
2022-09-03T05:38:43.003Z,65.08
2022-09-03T05:39:43.072Z,64.67
2022-09-03T05:40:42.972Z,65.05
2022-09-03T05:41:42.959Z,64.67
2022-09-03T05:42:42.944Z,65.39
2022-09-03T05:43:42.927Z,64.98
2022-09-03T05:44:42.952Z,64.88
2022-09-03T05:45:42.933Z,64.64
2022-09-03T05:46:42.928Z,64.54
2022-09-03T05:47:42.881Z,65.05
2022-09-03T05:48:42.870Z,64.85
2022-09-03T05:49:42.887Z,65.05
2022-09-03T05:50:42.841Z,65.05
2022-09-03T05:51:42.854Z,64.85
2022-09-03T05:52:42.817Z,65.45
2022-09-03T05:53:42.800Z,64.54
2022-09-03T05:54:42.795Z,64.54
2022-09-03T05:55:42.779Z,64.64
2022-09-03T05:56:42.948Z,64.75
2022-09-03T05:57:42.749Z,64.92
2022-09-03T05:58:42.738Z,64.95
2022-09-03T05:59:42.729Z,64.44
2022-09-03T06:00:42.712Z,64.21
2022-09-03T06:01:44.005Z,65.22
2022-09-03T06:02:42.871Z,64.92
2022-09-03T06:03:42.747Z,65.12
2022-09-03T06:04:42.661Z,64.21
2022-09-03T06:05:42.671Z,64.61
2022-09-03T06:06:42.690Z,65.02
2022-09-03T06:07:42.623Z,64.92
2022-09-03T06:08:42.614Z,64.72
2022-09-03T06:09:42.602Z,64.82
2022-09-03T06:10:42.794Z,64.41
2022-09-03T06:11:42.595Z,64.61
2022-09-03T06:12:42.558Z,64.99
2022-09-03T06:13:42.599Z,64.41
2022-09-03T06:14:42.534Z,64.92
2022-09-03T06:15:42.518Z,64.38
2022-09-03T06:16:42.553Z,64.18
2022-09-03T06:17:42.515Z,64.28
2022-09-03T06:18:42.500Z,64.28
2022-09-03T06:19:42.473Z,64.18
2022-09-03T06:20:42.458Z,64.38
2022-09-03T06:21:42.455Z,64.38
2022-09-03T06:22:42.441Z,64.18
2022-09-03T06:23:46.594Z,64.18
2022-09-03T06:24:42.432Z,64.28
2022-09-03T06:25:42.396Z,64.28
2022-09-03T06:26:42.874Z,64.18
2022-09-03T06:27:42.367Z,64.38
2022-09-03T06:28:42.377Z,64.55
2022-09-03T06:29:42.401Z,64.15
2022-09-03T06:30:42.334Z,63.84
2022-09-03T06:31:42.424Z,64.35
2022-09-03T06:32:42.306Z,63.95
2022-09-03T06:33:42.304Z,64.04
2022-09-03T06:34:42.281Z,64.55
2022-09-03T06:35:43.087Z,65.06
2022-09-03T06:36:42.262Z,64.55
2022-09-03T06:37:42.278Z,64.35
2022-09-03T06:38:42.264Z,63.95
2022-09-03T06:39:42.287Z,63.95
2022-09-03T06:40:42.377Z,63.95
2022-09-03T06:41:42.194Z,64.02
2022-09-03T06:42:42.185Z,63.71
2022-09-03T06:43:42.170Z,64.02
2022-09-03T06:44:42.177Z,63.41
2022-09-03T06:45:42.197Z,63.71
2022-09-03T06:46:42.146Z,63.41
2022-09-03T06:47:42.120Z,63.31
2022-09-03T06:48:42.127Z,62.81
2022-09-03T06:49:42.098Z,63.31
2022-09-03T06:50:42.088Z,62.60
2022-09-03T06:51:42.370Z,63.38
2022-09-03T06:52:42.061Z,63.28
2022-09-03T06:53:42.051Z,62.47
2022-09-03T06:54:42.073Z,63.68
2022-09-03T06:55:42.024Z,62.16
2022-09-03T06:56:42.017Z,63.18
2022-09-03T06:57:42.008Z,62.87
2022-09-03T06:58:41.988Z,62.57
2022-09-03T06:59:42.059Z,63.08
2022-09-03T07:00:42.149Z,62.27
2022-09-03T07:01:43.771Z,63.38
2022-09-03T07:02:44.957Z,63.48
2022-09-03T07:03:42.059Z,63.18
2022-09-03T07:04:42.035Z,62.87
2022-09-03T07:05:42.005Z,62.64
2022-09-03T07:06:41.964Z,63.15
2022-09-03T07:07:41.965Z,62.24
2022-09-03T07:08:41.945Z,63.05
2022-09-03T07:09:45.159Z,62.85
2022-09-03T07:10:41.915Z,63.76
2022-09-03T07:11:41.882Z,65.57
2022-09-03T07:12:41.878Z,65.17
2022-09-03T07:13:41.925Z,65.57
2022-09-03T07:14:41.896Z,64.87
2022-09-03T07:15:41.932Z,64.26
2022-09-03T07:16:41.913Z,63.96
2022-09-03T07:17:41.814Z,63.55
2022-09-03T07:18:41.792Z,63.55
2022-09-03T07:19:41.798Z,63.76
2022-09-03T07:20:41.881Z,62.31
2022-09-03T07:21:45.260Z,61.53
2022-09-03T07:22:41.777Z,61.91
2022-09-03T07:23:41.754Z,62.31
2022-09-03T07:24:41.717Z,62.21
2022-09-03T07:25:41.709Z,62.04
2022-09-03T07:26:41.714Z,62.01
2022-09-03T07:27:41.654Z,62.11
2022-09-03T07:28:41.662Z,61.60
2022-09-03T07:29:41.622Z,62.11
2022-09-03T07:30:41.607Z,62.11
2022-09-03T07:31:41.645Z,61.71
2022-09-03T07:32:41.610Z,62.62
2022-09-03T07:33:41.597Z,61.91
2022-09-03T07:34:41.906Z,62.08
2022-09-03T07:35:41.546Z,62.08
2022-09-03T07:36:41.540Z,61.98
2022-09-03T07:37:41.550Z,62.08
2022-09-03T07:38:41.579Z,61.68
2022-09-03T07:39:41.578Z,62.18
2022-09-03T07:40:41.492Z,61.47
2022-09-03T07:41:41.544Z,62.28
2022-09-03T07:42:41.467Z,60.66
2022-09-03T07:43:41.466Z,60.74
2022-09-03T07:44:41.448Z,61.68
2022-09-03T07:45:41.441Z,61.35
2022-09-03T07:46:41.456Z,62.65
2022-09-03T07:47:41.411Z,62.45
2022-09-03T07:48:41.406Z,62.25
2022-09-03T07:49:41.387Z,62.65
2022-09-03T07:50:41.375Z,63.67
2022-09-03T07:51:41.389Z,63.56
2022-09-03T07:52:41.382Z,62.55
2022-09-03T07:53:41.339Z,62.15
2022-09-03T07:54:41.331Z,62.35
2022-09-03T07:55:41.319Z,61.35
2022-09-03T07:56:41.320Z,63.53
2022-09-03T07:57:41.294Z,62.12
2022-09-03T07:58:41.319Z,62.73
2022-09-03T07:59:41.272Z,62.02
2022-09-03T08:00:41.290Z,61.61
2022-09-03T08:01:41.752Z,62.22
2022-09-03T08:02:45.956Z,61.61
2022-09-03T08:03:41.441Z,64.24
2022-09-03T08:04:41.246Z,63.43
2022-09-03T08:05:41.204Z,63.23
2022-09-03T08:06:41.198Z,64.27
2022-09-03T08:07:41.211Z,61.65
2022-09-03T08:08:41.185Z,61.52
2022-09-03T08:09:41.162Z,61.92
2022-09-03T08:10:41.169Z,61.61
2022-09-03T08:11:41.142Z,61.61
2022-09-03T08:12:41.137Z,60.61
2022-09-03T08:13:41.118Z,60.17
2022-09-03T08:14:41.113Z,60.78
2022-09-03T08:15:41.169Z,60.17
2022-09-03T08:16:41.113Z,60.28
2022-09-03T08:17:41.079Z,63.70
2022-09-03T08:18:41.072Z,61.79
2022-09-03T08:19:41.091Z,60.88
2022-09-03T08:20:41.178Z,60.55
2022-09-03T08:21:41.038Z,60.75
2022-09-03T08:22:41.029Z,60.45
2022-09-03T08:23:41.012Z,60.45
2022-09-03T08:24:41.014Z,59.14
2022-09-03T08:25:40.995Z,59.64
2022-09-03T08:26:41.025Z,58.94
2022-09-03T08:27:41.004Z,59.44
2022-09-03T08:28:40.966Z,58.91
2022-09-03T08:29:40.952Z,58.81
2022-09-03T08:30:40.946Z,58.81
2022-09-03T08:31:41.027Z,58.07
2022-09-03T08:32:40.971Z,58.07
2022-09-03T08:33:40.929Z,58.07
2022-09-03T08:34:40.908Z,59.39
2022-09-03T08:35:40.928Z,59.39
2022-09-03T08:36:40.914Z,58.18
2022-09-03T08:37:40.876Z,57.78
2022-09-03T08:38:40.890Z,57.57
2022-09-03T08:39:40.918Z,57.78
2022-09-03T08:40:40.908Z,57.35
2022-09-03T08:41:40.875Z,57.28
2022-09-03T08:42:40.838Z,57.07
2022-09-03T08:43:40.818Z,58.07
2022-09-03T08:44:40.825Z,57.55
2022-09-03T08:45:40.800Z,57.55
2022-09-03T08:46:40.845Z,57.85
2022-09-03T08:47:40.779Z,56.64
2022-09-03T08:48:40.770Z,57.75
2022-09-03T08:49:40.765Z,57.15
2022-09-03T08:50:40.751Z,56.71
2022-09-03T08:51:40.739Z,57.72
2022-09-03T08:52:40.793Z,56.71
2022-09-03T08:53:40.728Z,57.42
2022-09-03T08:54:40.712Z,56.31
2022-09-03T08:55:40.723Z,56.01
2022-09-03T08:56:40.704Z,56.82
2022-09-03T08:57:40.681Z,56.69
2022-09-03T08:58:40.678Z,57.19
2022-09-03T08:59:40.687Z,55.99
2022-09-03T09:00:40.657Z,56.29
2022-09-03T09:01:40.747Z,56.29
2022-09-03T09:02:40.752Z,55.38
2022-09-03T09:03:40.679Z,54.88
2022-09-03T09:04:40.631Z,55.68
2022-09-03T09:05:40.607Z,54.65
2022-09-03T09:06:40.603Z,56.29
2022-09-03T09:07:40.587Z,55.88
2022-09-03T09:08:40.585Z,56.26
2022-09-03T09:09:40.602Z,56.16
2022-09-03T09:10:40.562Z,55.05
2022-09-03T09:11:40.552Z,56.16
2022-09-03T09:12:46.372Z,57.26
2022-09-03T09:13:40.562Z,57.17
2022-09-03T09:14:40.522Z,56.56
2022-09-03T09:15:40.567Z,58.47
2022-09-03T09:16:40.528Z,57.46
2022-09-03T09:17:40.521Z,56.03
2022-09-03T09:18:40.488Z,55.43
2022-09-03T09:19:40.484Z,55.53
2022-09-03T09:20:40.466Z,55.63
2022-09-03T09:21:40.491Z,55.23
2022-09-03T09:22:40.460Z,54.02
2022-09-03T09:23:40.442Z,54.43
2022-09-03T09:24:40.435Z,54.53
2022-09-03T09:25:40.442Z,54.43
2022-09-03T09:26:40.420Z,54.33
2022-09-03T09:27:40.425Z,54.53
2022-09-03T09:28:40.409Z,54.53
2022-09-03T09:29:40.403Z,55.13
2022-09-03T09:30:40.384Z,55.23
2022-09-03T09:31:40.497Z,54.22
2022-09-03T09:32:40.360Z,54.13
2022-09-03T09:33:40.349Z,54.72
2022-09-03T09:34:40.341Z,54.02
2022-09-03T09:35:40.331Z,54.13
2022-09-03T09:36:40.349Z,54.13
2022-09-03T09:37:40.319Z,53.72
2022-09-03T09:38:40.419Z,54.30
2022-09-03T09:39:40.383Z,54.00
2022-09-03T09:40:44.767Z,54.22
2022-09-03T09:41:40.283Z,54.20
2022-09-03T09:42:40.264Z,54.70
2022-09-03T09:43:40.265Z,54.90
2022-09-03T09:44:40.268Z,54.10
2022-09-03T09:45:40.241Z,53.90
2022-09-03T09:46:40.262Z,53.59
2022-09-03T09:47:40.299Z,54.10
2022-09-03T09:48:40.209Z,54.47
2022-09-03T09:49:40.198Z,53.57
2022-09-03T09:50:40.192Z,53.17
2022-09-03T09:51:40.192Z,53.97
2022-09-03T09:52:40.169Z,53.85
2022-09-03T09:53:40.191Z,53.47
2022-09-03T09:54:40.148Z,54.65
2022-09-03T09:55:40.142Z,54.65
2022-09-03T09:56:40.130Z,54.05
2022-09-03T09:57:40.121Z,53.25
2022-09-03T09:58:40.111Z,53.75
2022-09-03T09:59:40.111Z,53.55
2022-09-03T10:00:40.094Z,52.64
2022-09-03T10:01:40.162Z,52.82
2022-09-03T10:02:40.101Z,53.75
2022-09-03T10:03:40.093Z,53.42
2022-09-03T10:04:40.066Z,53.55
2022-09-03T10:05:40.045Z,53.22
2022-09-03T10:06:40.037Z,52.62
2022-09-03T10:07:40.037Z,52.84
2022-09-03T10:08:40.018Z,52.22
2022-09-03T10:09:40.015Z,53.62
2022-09-03T10:10:39.997Z,53.42
2022-09-03T10:11:40.015Z,53.92
2022-09-03T10:12:39.981Z,52.32
2022-09-03T10:13:39.976Z,52.82
2022-09-03T10:14:40.161Z,52.64
2022-09-03T10:15:40.033Z,52.32
2022-09-03T10:16:39.942Z,51.92
2022-09-03T10:17:39.950Z,52.75
2022-09-03T10:18:39.925Z,52.55
2022-09-03T10:19:39.916Z,51.51
2022-09-03T10:20:39.917Z,52.62
2022-09-03T10:21:39.897Z,52.22
2022-09-03T10:22:39.886Z,52.82
2022-09-03T10:23:39.876Z,53.42
2022-09-03T10:24:39.871Z,53.32
2022-09-03T10:25:39.911Z,52.62
2022-09-03T10:26:39.853Z,52.72
2022-09-03T10:27:41.149Z,52.89
2022-09-03T10:28:39.831Z,53.19
2022-09-03T10:29:39.843Z,53.39
2022-09-03T10:30:39.851Z,52.89
2022-09-03T10:31:39.818Z,52.69
2022-09-03T10:32:41.866Z,51.87
2022-09-03T10:33:39.783Z,50.57
2022-09-03T10:34:39.776Z,50.87
2022-09-03T10:35:39.772Z,51.27
2022-09-03T10:36:39.762Z,51.07
2022-09-03T10:37:39.751Z,50.37
2022-09-03T10:38:39.744Z,51.57
2022-09-03T10:39:43.320Z,51.97
2022-09-03T10:40:39.718Z,51.27
2022-09-03T10:41:39.737Z,51.97
2022-09-03T10:42:39.702Z,52.04
2022-09-03T10:43:39.698Z,51.17
2022-09-03T10:44:39.692Z,51.37
2022-09-03T10:45:39.684Z,51.77
2022-09-03T10:46:39.708Z,51.34
2022-09-03T10:47:39.695Z,50.14
2022-09-03T10:48:39.645Z,50.54
2022-09-03T10:49:39.640Z,50.44
2022-09-03T10:50:39.633Z,50.54
2022-09-03T10:51:39.634Z,49.54
2022-09-03T10:52:39.621Z,51.44
2022-09-03T10:53:39.604Z,51.44
2022-09-03T10:54:39.617Z,50.24
2022-09-03T10:55:39.592Z,51.44
2022-09-03T10:56:39.579Z,51.34
2022-09-03T10:57:39.648Z,51.64
2022-09-03T10:58:39.563Z,50.54
2022-09-03T10:59:39.547Z,50.64
2022-09-03T11:00:39.591Z,51.52
2022-09-03T11:01:39.601Z,51.32
2022-09-03T11:02:39.558Z,50.32
2022-09-03T11:03:39.513Z,49.52
2022-09-03T11:04:39.504Z,49.91
2022-09-03T11:05:39.537Z,50.32
2022-09-03T11:06:39.485Z,49.91
2022-09-03T11:07:39.508Z,49.72
2022-09-03T11:08:39.528Z,49.41
2022-09-03T11:09:39.485Z,50.09
2022-09-03T11:10:39.675Z,49.99
2022-09-03T11:11:39.449Z,51.39
2022-09-03T11:12:39.590Z,49.90
2022-09-03T11:13:39.451Z,49.19
2022-09-03T11:14:39.416Z,49.69
2022-09-03T11:15:39.457Z,50.02
2022-09-03T11:16:39.404Z,49.99
2022-09-03T11:17:39.417Z,50.09
2022-09-03T11:18:39.430Z,50.12
2022-09-03T11:19:39.409Z,50.99
2022-09-03T11:20:39.361Z,49.49
2022-09-03T11:21:39.364Z,50.09
2022-09-03T11:22:39.343Z,49.90
2022-09-03T11:23:39.409Z,49.32
2022-09-03T11:24:39.352Z,50.32
2022-09-03T11:25:39.327Z,49.90
2022-09-03T11:26:39.331Z,50.52
2022-09-03T11:27:39.304Z,51.29
2022-09-03T11:28:39.453Z,50.20
2022-09-03T11:29:39.320Z,49.99
2022-09-03T11:30:39.420Z,50.09
2022-09-03T11:31:39.267Z,49.69
2022-09-03T11:32:39.259Z,49.59
2022-09-03T11:33:39.253Z,49.97
2022-09-03T11:34:39.280Z,49.57
2022-09-03T11:35:39.312Z,50.09
2022-09-03T11:36:39.223Z,49.77
2022-09-03T11:37:39.232Z,50.47
2022-09-03T11:38:39.208Z,50.27
2022-09-03T11:39:39.294Z,49.47
2022-09-03T11:40:39.188Z,49.27
2022-09-03T11:41:39.188Z,49.27
2022-09-03T11:42:39.173Z,49.25
2022-09-03T11:43:39.165Z,49.74
2022-09-03T11:44:48.019Z,50.04
2022-09-03T11:45:39.232Z,50.04
2022-09-03T11:46:39.178Z,49.77
2022-09-03T11:47:39.152Z,49.37
2022-09-03T11:48:39.123Z,49.87
2022-09-03T11:49:39.144Z,51.17
2022-09-03T11:50:39.106Z,50.07
2022-09-03T11:51:39.113Z,50.67
2022-09-03T11:52:39.089Z,50.07
2022-09-03T11:53:39.082Z,49.87
2022-09-03T11:54:39.074Z,49.37
2022-09-03T11:55:43.374Z,50.07
2022-09-03T11:56:39.068Z,50.49
2022-09-03T11:57:39.049Z,50.27
2022-09-03T11:58:39.040Z,49.87
2022-09-03T11:59:39.031Z,49.35
2022-09-03T12:00:39.053Z,50.47
2022-09-03T12:01:39.045Z,49.87
2022-09-03T12:02:39.199Z,48.87
2022-09-03T12:03:38.993Z,49.97
2022-09-03T12:04:39.051Z,51.37
2022-09-03T12:05:39.027Z,50.47
2022-09-03T12:06:39.147Z,50.87
2022-09-03T12:07:38.961Z,49.99
2022-09-03T12:08:38.978Z,50.47
2022-09-03T12:09:38.961Z,49.17
2022-09-03T12:10:38.935Z,50.57
2022-09-03T12:11:38.931Z,49.65
2022-09-03T12:12:38.933Z,50.24
2022-09-03T12:13:38.921Z,50.35
2022-09-03T12:14:38.900Z,47.95
2022-09-03T12:15:39.020Z,48.75
2022-09-03T12:16:38.885Z,48.85
2022-09-03T12:17:38.928Z,49.92
2022-09-03T12:18:38.866Z,49.72
2022-09-03T12:19:38.861Z,49.20
2022-09-03T12:20:38.864Z,48.52
2022-09-03T12:21:38.848Z,49.42
2022-09-03T12:22:38.837Z,48.72
2022-09-03T12:23:38.858Z,48.30
2022-09-03T12:24:38.828Z,48.43
2022-09-03T12:25:38.816Z,48.20
2022-09-03T12:26:38.826Z,50.10
2022-09-03T12:27:38.827Z,48.70
2022-09-03T12:28:38.785Z,48.30
2022-09-03T12:29:38.814Z,47.90
2022-09-03T12:30:38.854Z,48.00
2022-09-03T12:31:42.971Z,47.28
2022-09-03T12:32:38.757Z,47.20
2022-09-03T12:33:38.751Z,46.08
2022-09-03T12:34:38.741Z,46.78
2022-09-03T12:36:38.726Z,47.08
2022-09-03T12:39:07.685Z,47.58
2022-09-03T12:40:09.103Z,45.89
2022-09-03T12:41:23.016Z,46.20
2022-09-03T12:41:38.726Z,48.00
2022-09-03T12:42:38.677Z,48.60
2022-09-03T12:43:39.590Z,47.20
2022-09-03T12:44:38.685Z,47.71
2022-09-03T12:46:38.726Z,49.08
2022-09-03T12:47:38.730Z,47.28
2022-09-03T12:48:40.427Z,47.56
2022-09-03T12:49:38.669Z,47.16
2022-09-03T12:50:42.456Z,47.16
2022-09-03T12:51:56.870Z,47.45
2022-09-03T12:52:38.602Z,46.73
2022-09-03T12:53:38.617Z,47.56
2022-09-03T12:54:38.654Z,46.26
2022-09-03T12:55:38.608Z,45.17